sensor_id;sensor_type;location;lat;lon;timestamp;temperature;humidity
52979;DHT22;51106;53.186;6.598;2022-08-11T00:00:55;17.10;99.90
52979;DHT22;51106;53.186;6.598;2022-08-11T00:03:10;17.00;99.90
52979;DHT22;51106;53.186;6.598;2022-08-11T00:05:26;17.00;99.90
52979;DHT22;51106;53.186;6.598;2022-08-11T00:07:44;16.90;99.90
52979;DHT22;51106;53.186;6.598;2022-08-11T00:10:09;16.90;99.90
52979;DHT22;51106;53.186;6.598;2022-08-11T00:12:36;16.90;99.90
52979;DHT22;51106;53.186;6.598;2022-08-11T00:15:00;17.20;99.90
52979;DHT22;51106;53.186;6.598;2022-08-11T00:17:10;17.00;99.90
52979;DHT22;51106;53.186;6.598;2022-08-11T00:19:32;17.00;99.90
52979;DHT22;51106;53.186;6.598;2022-08-11T00:22:18;16.90;99.90
52979;DHT22;51106;53.186;6.598;2022-08-11T00:24:35;16.90;99.90
52979;DHT22;51106;53.186;6.598;2022-08-11T00:26:59;16.90;99.90
52979;DHT22;51106;53.186;6.598;2022-08-11T00:29:19;16.90;99.90
52979;DHT22;51106;53.186;6.598;2022-08-11T00:31:31;17.20;99.90
52979;DHT22;51106;53.186;6.598;2022-08-11T00:33:43;16.90;99.90
52979;DHT22;51106;53.186;6.598;2022-08-11T00:35:58;16.90;99.90
52979;DHT22;51106;53.186;6.598;2022-08-11T00:38:05;16.90;99.90
52979;DHT22;51106;53.186;6.598;2022-08-11T00:40:32;16.80;99.90
52979;DHT22;51106;53.186;6.598;2022-08-11T00:46:11;16.80;99.90
52979;DHT22;51106;53.186;6.598;2022-08-11T00:48:50;16.70;99.90
52979;DHT22;51106;53.186;6.598;2022-08-11T00:51:19;16.60;99.90
52979;DHT22;51106;53.186;6.598;2022-08-11T01:02:11;16.50;99.90
52979;DHT22;51106;53.186;6.598;2022-08-11T01:05:12;16.60;99.90
52979;DHT22;51106;53.186;6.598;2022-08-11T01:25:34;16.60;99.90
52979;DHT22;51106;53.186;6.598;2022-08-11T01:36:25;16.40;99.90
52979;DHT22;51106;53.186;6.598;2022-08-11T01:46:42;16.40;99.90
52979;DHT22;51106;53.186;6.598;2022-08-11T02:03:53;16.10;99.90
52979;DHT22;51106;53.186;6.598;2022-08-11T02:06:03;16.20;99.90
52979;DHT22;51106;53.186;6.598;2022-08-11T02:11:32;16.20;99.90
52979;DHT22;51106;53.186;6.598;2022-08-11T02:14:01;16.20;99.90
52979;DHT22;51106;53.186;6.598;2022-08-11T02:18:38;16.20;99.90
52979;DHT22;51106;53.186;6.598;2022-08-11T02:21:05;16.10;99.90
52979;DHT22;51106;53.186;6.598;2022-08-11T02:26:22;16.10;99.90
52979;DHT22;51106;53.186;6.598;2022-08-11T02:34:18;16.00;99.90
52979;DHT22;51106;53.186;6.598;2022-08-11T02:36:44;16.00;99.90
52979;DHT22;51106;53.186;6.598;2022-08-11T02:39:02;15.90;99.90
52979;DHT22;51106;53.186;6.598;2022-08-11T02:46:37;15.90;99.90
52979;DHT22;51106;53.186;6.598;2022-08-11T02:49:04;15.90;99.90
52979;DHT22;51106;53.186;6.598;2022-08-11T02:52:07;15.80;99.90
52979;DHT22;51106;53.186;6.598;2022-08-11T02:54:14;15.80;99.90
52979;DHT22;51106;53.186;6.598;2022-08-11T02:56:44;15.70;99.90
52979;DHT22;51106;53.186;6.598;2022-08-11T02:59:04;15.80;99.90
52979;DHT22;51106;53.186;6.598;2022-08-11T03:01:34;15.70;99.90
52979;DHT22;51106;53.186;6.598;2022-08-11T03:11:03;15.60;99.90
52979;DHT22;51106;53.186;6.598;2022-08-11T03:13:30;15.60;99.90
52979;DHT22;51106;53.186;6.598;2022-08-11T03:18:40;15.60;99.90
52979;DHT22;51106;53.186;6.598;2022-08-11T03:23:32;15.60;99.90
52979;DHT22;51106;53.186;6.598;2022-08-11T03:25:50;15.70;99.90
52979;DHT22;51106;53.186;6.598;2022-08-11T03:31:22;15.90;99.90
52979;DHT22;51106;53.186;6.598;2022-08-11T03:33:24;15.60;99.90
52979;DHT22;51106;53.186;6.598;2022-08-11T03:41:39;15.40;99.90
52979;DHT22;51106;53.186;6.598;2022-08-11T03:44:33;15.30;99.90
52979;DHT22;51106;53.186;6.598;2022-08-11T03:51:26;15.30;99.90
52979;DHT22;51106;53.186;6.598;2022-08-11T04:16:47;15.10;99.90
52979;DHT22;51106;53.186;6.598;2022-08-11T04:19:21;15.20;99.90
52979;DHT22;51106;53.186;6.598;2022-08-11T04:24:13;15.30;99.90
52979;DHT22;51106;53.186;6.598;2022-08-11T04:42:11;15.20;99.90
52979;DHT22;51106;53.186;6.598;2022-08-11T04:50:29;15.20;99.90
52979;DHT22;51106;53.186;6.598;2022-08-11T05:06:56;15.30;99.90
52979;DHT22;51106;53.186;6.598;2022-08-11T05:11:42;15.50;99.90
52979;DHT22;51106;53.186;6.598;2022-08-11T05:16:28;15.70;99.90
52979;DHT22;51106;53.186;6.598;2022-08-11T05:18:53;15.90;99.90
52979;DHT22;51106;53.186;6.598;2022-08-11T05:21:20;15.80;99.90
52979;DHT22;51106;53.186;6.598;2022-08-11T05:23:54;15.80;99.90
52979;DHT22;51106;53.186;6.598;2022-08-11T05:26:17;15.90;99.90
52979;DHT22;51106;53.186;6.598;2022-08-11T05:29:00;15.90;99.90
52979;DHT22;51106;53.186;6.598;2022-08-11T05:31:32;16.00;99.90
52979;DHT22;51106;53.186;6.598;2022-08-11T05:34:21;16.10;99.90
52979;DHT22;51106;53.186;6.598;2022-08-11T05:38:59;16.30;99.90
52979;DHT22;51106;53.186;6.598;2022-08-11T05:41:39;16.40;99.90
52979;DHT22;51106;53.186;6.598;2022-08-11T05:44:02;16.40;99.90
52979;DHT22;51106;53.186;6.598;2022-08-11T05:46:23;16.60;99.90
52979;DHT22;51106;53.186;6.598;2022-08-11T05:48:48;16.70;99.90
52979;DHT22;51106;53.186;6.598;2022-08-11T05:51:09;16.80;99.90
52979;DHT22;51106;53.186;6.598;2022-08-11T05:53:31;16.90;99.90
52979;DHT22;51106;53.186;6.598;2022-08-11T05:55:52;17.10;99.90
52979;DHT22;51106;53.186;6.598;2022-08-11T05:58:15;17.20;99.90
52979;DHT22;51106;53.186;6.598;2022-08-11T06:00:18;17.40;99.90
52979;DHT22;51106;53.186;6.598;2022-08-11T06:02:42;17.40;99.90
52979;DHT22;51106;53.186;6.598;2022-08-11T06:04:45;17.60;99.90
52979;DHT22;51106;53.186;6.598;2022-08-11T06:06:55;17.70;99.90
52979;DHT22;51106;53.186;6.598;2022-08-11T06:08:58;17.80;99.90
52979;DHT22;51106;53.186;6.598;2022-08-11T06:11:03;18.10;99.90
52979;DHT22;51106;53.186;6.598;2022-08-11T06:13:09;18.00;99.90
52979;DHT22;51106;53.186;6.598;2022-08-11T06:15:12;18.20;99.90
52979;DHT22;51106;53.186;6.598;2022-08-11T06:17:25;18.30;99.90
52979;DHT22;51106;53.186;6.598;2022-08-11T06:19:41;18.50;99.90
52979;DHT22;51106;53.186;6.598;2022-08-11T06:21:51;18.60;99.90
52979;DHT22;51106;53.186;6.598;2022-08-11T06:23:54;18.90;99.90
52979;DHT22;51106;53.186;6.598;2022-08-11T06:25:57;19.00;99.90
52979;DHT22;51106;53.186;6.598;2022-08-11T06:28:03;19.20;99.90
52979;DHT22;51106;53.186;6.598;2022-08-11T06:30:07;19.40;99.90
52979;DHT22;51106;53.186;6.598;2022-08-11T06:32:14;19.50;99.90
52979;DHT22;51106;53.186;6.598;2022-08-11T06:37:18;19.90;99.90
52979;DHT22;51106;53.186;6.598;2022-08-11T06:39:28;20.10;99.90
52979;DHT22;51106;53.186;6.598;2022-08-11T06:43:52;20.40;99.90
52979;DHT22;51106;53.186;6.598;2022-08-11T06:46:00;20.50;99.90
52979;DHT22;51106;53.186;6.598;2022-08-11T06:48:15;20.70;99.90
52979;DHT22;51106;53.186;6.598;2022-08-11T06:50:19;20.80;99.90
52979;DHT22;51106;53.186;6.598;2022-08-11T06:52:44;21.00;99.90
52979;DHT22;51106;53.186;6.598;2022-08-11T06:55:00;21.10;99.90
52979;DHT22;51106;53.186;6.598;2022-08-11T06:57:37;21.30;99.90
52979;DHT22;51106;53.186;6.598;2022-08-11T07:00:03;21.40;99.90
52979;DHT22;51106;53.186;6.598;2022-08-11T07:02:37;21.60;99.90
52979;DHT22;51106;53.186;6.598;2022-08-11T07:04:48;21.70;99.90
52979;DHT22;51106;53.186;6.598;2022-08-11T07:07:20;21.80;99.90
52979;DHT22;51106;53.186;6.598;2022-08-11T07:12:39;22.10;99.90
52979;DHT22;51106;53.186;6.598;2022-08-11T07:15:03;22.20;99.90
52979;DHT22;51106;53.186;6.598;2022-08-11T07:17:49;22.40;99.70
52979;DHT22;51106;53.186;6.598;2022-08-11T07:20:12;22.60;99.20
52979;DHT22;51106;53.186;6.598;2022-08-11T07:22:34;22.70;98.80
52979;DHT22;51106;53.186;6.598;2022-08-11T07:25:14;22.80;98.40
52979;DHT22;51106;53.186;6.598;2022-08-11T07:27:48;23.00;97.80
52979;DHT22;51106;53.186;6.598;2022-08-11T07:30:12;23.10;96.60
52979;DHT22;51106;53.186;6.598;2022-08-11T07:32:21;23.30;96.20
52979;DHT22;51106;53.186;6.598;2022-08-11T07:34:31;23.40;95.60
52979;DHT22;51106;53.186;6.598;2022-08-11T07:36:39;23.50;94.90
52979;DHT22;51106;53.186;6.598;2022-08-11T07:38:50;23.60;94.70
52979;DHT22;51106;53.186;6.598;2022-08-11T07:40:57;23.70;94.50
52979;DHT22;51106;53.186;6.598;2022-08-11T07:43:00;23.70;94.30
52979;DHT22;51106;53.186;6.598;2022-08-11T07:45:08;23.80;93.70
52979;DHT22;51106;53.186;6.598;2022-08-11T07:47:32;23.80;93.20
52979;DHT22;51106;53.186;6.598;2022-08-11T07:49:54;23.80;93.20
52979;DHT22;51106;53.186;6.598;2022-08-11T07:52:15;24.00;92.90
52979;DHT22;51106;53.186;6.598;2022-08-11T07:54:35;24.10;92.00
52979;DHT22;51106;53.186;6.598;2022-08-11T07:56:39;24.20;91.50
52979;DHT22;51106;53.186;6.598;2022-08-11T07:59:02;24.30;90.90
52979;DHT22;51106;53.186;6.598;2022-08-11T08:01:49;24.40;90.40
52979;DHT22;51106;53.186;6.598;2022-08-11T08:04:13;24.60;90.00
52979;DHT22;51106;53.186;6.598;2022-08-11T08:06:38;24.70;88.80
52979;DHT22;51106;53.186;6.598;2022-08-11T08:09:00;24.80;88.00
52979;DHT22;51106;53.186;6.598;2022-08-11T08:11:22;24.80;87.20
52979;DHT22;51106;53.186;6.598;2022-08-11T08:13:44;24.90;86.80
52979;DHT22;51106;53.186;6.598;2022-08-11T08:16:05;25.00;84.60
52979;DHT22;51106;53.186;6.598;2022-08-11T08:18:27;25.10;84.20
52979;DHT22;51106;53.186;6.598;2022-08-11T08:20:44;25.10;83.40
52979;DHT22;51106;53.186;6.598;2022-08-11T08:22:50;25.00;82.50
52979;DHT22;51106;53.186;6.598;2022-08-11T08:24:57;25.10;82.60
52979;DHT22;51106;53.186;6.598;2022-08-11T08:27:00;25.20;82.60
52979;DHT22;51106;53.186;6.598;2022-08-11T08:29:06;25.30;82.60
52979;DHT22;51106;53.186;6.598;2022-08-11T08:31:27;25.30;80.60
52979;DHT22;51106;53.186;6.598;2022-08-11T08:33:30;25.40;79.20
52979;DHT22;51106;53.186;6.598;2022-08-11T08:35:34;25.50;78.00
52979;DHT22;51106;53.186;6.598;2022-08-11T08:37:56;25.50;78.10
52979;DHT22;51106;53.186;6.598;2022-08-11T08:39:59;25.60;78.50
52979;DHT22;51106;53.186;6.598;2022-08-11T08:42:05;25.80;77.50
52979;DHT22;51106;53.186;6.598;2022-08-11T08:44:10;25.90;75.90
52979;DHT22;51106;53.186;6.598;2022-08-11T08:46:41;25.90;74.30
52979;DHT22;51106;53.186;6.598;2022-08-11T08:48:46;26.00;73.50
52979;DHT22;51106;53.186;6.598;2022-08-11T08:51:02;26.00;72.80
52979;DHT22;51106;53.186;6.598;2022-08-11T08:53:28;26.10;71.90
52979;DHT22;51106;53.186;6.598;2022-08-11T08:55:33;26.20;70.70
52979;DHT22;51106;53.186;6.598;2022-08-11T08:57:36;26.30;70.80
52979;DHT22;51106;53.186;6.598;2022-08-11T08:59:43;26.50;71.00
52979;DHT22;51106;53.186;6.598;2022-08-11T09:01:56;26.70;70.30
52979;DHT22;51106;53.186;6.598;2022-08-11T09:03:59;26.70;67.30
52979;DHT22;51106;53.186;6.598;2022-08-11T09:06:10;26.90;67.20
52979;DHT22;51106;53.186;6.598;2022-08-11T09:08:17;27.00;65.60
52979;DHT22;51106;53.186;6.598;2022-08-11T09:10:20;27.10;64.40
52979;DHT22;51106;53.186;6.598;2022-08-11T09:12:28;27.20;64.40
52979;DHT22;51106;53.186;6.598;2022-08-11T09:14:42;27.40;64.00
52979;DHT22;51106;53.186;6.598;2022-08-11T09:17:04;27.40;62.80
52979;DHT22;51106;53.186;6.598;2022-08-11T09:19:08;27.60;61.90
52979;DHT22;51106;53.186;6.598;2022-08-11T09:21:13;27.70;61.00
52979;DHT22;51106;53.186;6.598;2022-08-11T09:23:37;27.80;60.50
52979;DHT22;51106;53.186;6.598;2022-08-11T09:26:11;27.90;59.60
52979;DHT22;51106;53.186;6.598;2022-08-11T09:28:32;28.00;58.00
52979;DHT22;51106;53.186;6.598;2022-08-11T09:30:39;28.10;58.00
52979;DHT22;51106;53.186;6.598;2022-08-11T09:32:42;28.20;55.80
52979;DHT22;51106;53.186;6.598;2022-08-11T09:34:50;28.30;55.20
52979;DHT22;51106;53.186;6.598;2022-08-11T09:36:54;28.30;54.70
52979;DHT22;51106;53.186;6.598;2022-08-11T09:39:37;28.40;55.70
52979;DHT22;51106;53.186;6.598;2022-08-11T09:42:01;28.60;55.80
52979;DHT22;51106;53.186;6.598;2022-08-11T09:44:24;28.70;53.70
52979;DHT22;51106;53.186;6.598;2022-08-11T09:46:46;28.80;53.10
52979;DHT22;51106;53.186;6.598;2022-08-11T09:48:54;28.90;52.80
52979;DHT22;51106;53.186;6.598;2022-08-11T09:51:00;29.00;52.80
52979;DHT22;51106;53.186;6.598;2022-08-11T09:53:03;29.10;50.20
52979;DHT22;51106;53.186;6.598;2022-08-11T09:55:27;29.00;49.90
52979;DHT22;51106;53.186;6.598;2022-08-11T09:57:28;29.10;49.00
52979;DHT22;51106;53.186;6.598;2022-08-11T09:59:51;29.30;47.50
52979;DHT22;51106;53.186;6.598;2022-08-11T10:02:14;29.40;46.30
52979;DHT22;51106;53.186;6.598;2022-08-11T10:04:23;29.40;46.10
52979;DHT22;51106;53.186;6.598;2022-08-11T10:06:28;29.30;44.00
52979;DHT22;51106;53.186;6.598;2022-08-11T10:08:54;29.20;43.40
52979;DHT22;51106;53.186;6.598;2022-08-11T10:10:57;29.30;44.30
52979;DHT22;51106;53.186;6.598;2022-08-11T10:13:02;29.40;43.90
52979;DHT22;51106;53.186;6.598;2022-08-11T10:15:09;29.50;45.10
52979;DHT22;51106;53.186;6.598;2022-08-11T10:17:34;29.70;45.00
52979;DHT22;51106;53.186;6.598;2022-08-11T10:19:41;29.80;45.10
52979;DHT22;51106;53.186;6.598;2022-08-11T10:21:47;29.80;42.70
52979;DHT22;51106;53.186;6.598;2022-08-11T10:24:11;29.70;40.70
52979;DHT22;51106;53.186;6.598;2022-08-11T10:26:32;29.50;41.80
52979;DHT22;51106;53.186;6.598;2022-08-11T10:28:54;29.70;40.80
52979;DHT22;51106;53.186;6.598;2022-08-11T10:31:14;29.70;41.90
52979;DHT22;51106;53.186;6.598;2022-08-11T10:33:56;29.80;42.10
52979;DHT22;51106;53.186;6.598;2022-08-11T10:36:03;29.70;42.30
52979;DHT22;51106;53.186;6.598;2022-08-11T10:38:17;29.80;42.90
52979;DHT22;51106;53.186;6.598;2022-08-11T10:40:21;30.00;42.60
52979;DHT22;51106;53.186;6.598;2022-08-11T10:42:24;30.20;42.30
52979;DHT22;51106;53.186;6.598;2022-08-11T10:44:59;30.30;41.60
52979;DHT22;51106;53.186;6.598;2022-08-11T10:47:03;30.40;41.60
52979;DHT22;51106;53.186;6.598;2022-08-11T10:49:25;30.50;40.80
52979;DHT22;51106;53.186;6.598;2022-08-11T10:51:29;30.60;39.80
52979;DHT22;51106;53.186;6.598;2022-08-11T10:53:56;30.60;40.00
52979;DHT22;51106;53.186;6.598;2022-08-11T10:56:18;30.70;40.40
52979;DHT22;51106;53.186;6.598;2022-08-11T10:58:39;30.70;39.80
52979;DHT22;51106;53.186;6.598;2022-08-11T11:00:52;30.90;40.60
52979;DHT22;51106;53.186;6.598;2022-08-11T11:02:58;30.90;39.50
52979;DHT22;51106;53.186;6.598;2022-08-11T11:05:28;30.90;39.10
52979;DHT22;51106;53.186;6.598;2022-08-11T11:07:42;30.90;36.10
52979;DHT22;51106;53.186;6.598;2022-08-11T11:09:56;31.00;37.20
52979;DHT22;51106;53.186;6.598;2022-08-11T11:12:02;31.00;37.40
52979;DHT22;51106;53.186;6.598;2022-08-11T11:14:30;30.90;36.30
52979;DHT22;51106;53.186;6.598;2022-08-11T11:17:00;30.90;36.70
52979;DHT22;51106;53.186;6.598;2022-08-11T11:19:23;30.90;35.70
52979;DHT22;51106;53.186;6.598;2022-08-11T11:21:27;30.80;35.20
52979;DHT22;51106;53.186;6.598;2022-08-11T11:23:55;30.80;36.70
52979;DHT22;51106;53.186;6.598;2022-08-11T11:38:40;30.70;35.60
52979;DHT22;51106;53.186;6.598;2022-08-11T11:40:43;30.70;37.20
52979;DHT22;51106;53.186;6.598;2022-08-11T11:42:45;30.80;35.90
52979;DHT22;51106;53.186;6.598;2022-08-11T11:44:50;30.90;36.00
52979;DHT22;51106;53.186;6.598;2022-08-11T11:46:57;31.10;34.60
52979;DHT22;51106;53.186;6.598;2022-08-11T11:49:01;31.20;34.90
52979;DHT22;51106;53.186;6.598;2022-08-11T11:51:18;31.30;34.00
52979;DHT22;51106;53.186;6.598;2022-08-11T11:53:21;31.30;34.20
52979;DHT22;51106;53.186;6.598;2022-08-11T11:55:25;31.20;33.70
52979;DHT22;51106;53.186;6.598;2022-08-11T11:57:34;31.20;36.30
52979;DHT22;51106;53.186;6.598;2022-08-11T12:00:05;31.20;35.60
52979;DHT22;51106;53.186;6.598;2022-08-11T12:02:35;31.30;35.50
52979;DHT22;51106;53.186;6.598;2022-08-11T12:04:40;31.40;35.50
52979;DHT22;51106;53.186;6.598;2022-08-11T12:06:44;31.40;34.90
52979;DHT22;51106;53.186;6.598;2022-08-11T12:08:50;31.60;34.90
52979;DHT22;51106;53.186;6.598;2022-08-11T12:10:54;31.50;33.10
52979;DHT22;51106;53.186;6.598;2022-08-11T12:13:17;31.60;33.10
52979;DHT22;51106;53.186;6.598;2022-08-11T12:15:38;31.60;33.50
52979;DHT22;51106;53.186;6.598;2022-08-11T12:18:01;31.70;33.00
52979;DHT22;51106;53.186;6.598;2022-08-11T12:20:04;31.70;33.80
52979;DHT22;51106;53.186;6.598;2022-08-11T12:22:27;31.60;33.40
52979;DHT22;51106;53.186;6.598;2022-08-11T12:24:48;31.40;33.90
52979;DHT22;51106;53.186;6.598;2022-08-11T12:27:10;31.50;34.80
52979;DHT22;51106;53.186;6.598;2022-08-11T12:29:26;31.60;34.30
52979;DHT22;51106;53.186;6.598;2022-08-11T12:31:29;31.60;34.50
52979;DHT22;51106;53.186;6.598;2022-08-11T12:33:32;31.60;34.60
52979;DHT22;51106;53.186;6.598;2022-08-11T12:35:40;31.60;35.10
52979;DHT22;51106;53.186;6.598;2022-08-11T12:38:02;31.40;35.80
52979;DHT22;51106;53.186;6.598;2022-08-11T12:40:21;31.30;35.40
52979;DHT22;51106;53.186;6.598;2022-08-11T12:43:06;31.30;35.20
52979;DHT22;51106;53.186;6.598;2022-08-11T12:45:40;31.30;35.60
52979;DHT22;51106;53.186;6.598;2022-08-11T12:47:48;31.20;35.60
52979;DHT22;51106;53.186;6.598;2022-08-11T12:50:29;31.20;35.60
52979;DHT22;51106;53.186;6.598;2022-08-11T12:52:52;31.10;35.20
52979;DHT22;51106;53.186;6.598;2022-08-11T12:54:57;31.00;34.50
52979;DHT22;51106;53.186;6.598;2022-08-11T12:57:05;30.90;34.60
52979;DHT22;51106;53.186;6.598;2022-08-11T12:59:39;31.00;34.50
52979;DHT22;51106;53.186;6.598;2022-08-11T13:02:01;31.20;35.50
52979;DHT22;51106;53.186;6.598;2022-08-11T13:04:25;31.20;34.90
52979;DHT22;51106;53.186;6.598;2022-08-11T13:06:51;31.20;34.30
52979;DHT22;51106;53.186;6.598;2022-08-11T13:08:54;31.20;34.20
52979;DHT22;51106;53.186;6.598;2022-08-11T13:11:03;31.30;34.80
52979;DHT22;51106;53.186;6.598;2022-08-11T13:13:25;31.20;33.20
52979;DHT22;51106;53.186;6.598;2022-08-11T13:15:48;31.10;34.10
52979;DHT22;51106;53.186;6.598;2022-08-11T13:17:52;31.10;34.70
52979;DHT22;51106;53.186;6.598;2022-08-11T13:19:57;31.10;33.90
52979;DHT22;51106;53.186;6.598;2022-08-11T13:22:00;30.90;33.70
52979;DHT22;51106;53.186;6.598;2022-08-11T13:24:04;30.80;34.20
52979;DHT22;51106;53.186;6.598;2022-08-11T13:26:07;30.80;34.30
52979;DHT22;51106;53.186;6.598;2022-08-11T13:28:10;30.90;34.30
52979;DHT22;51106;53.186;6.598;2022-08-11T13:30:14;30.90;34.00
52979;DHT22;51106;53.186;6.598;2022-08-11T13:32:41;31.00;34.00
52979;DHT22;51106;53.186;6.598;2022-08-11T13:34:46;31.00;33.30
52979;DHT22;51106;53.186;6.598;2022-08-11T13:36:51;30.80;32.50
52979;DHT22;51106;53.186;6.598;2022-08-11T13:38:54;30.80;32.40
52979;DHT22;51106;53.186;6.598;2022-08-11T13:40:59;30.80;32.70
52979;DHT22;51106;53.186;6.598;2022-08-11T13:43:01;30.80;32.90
52979;DHT22;51106;53.186;6.598;2022-08-11T13:45:05;30.80;32.80
52979;DHT22;51106;53.186;6.598;2022-08-11T13:47:11;30.70;32.40
52979;DHT22;51106;53.186;6.598;2022-08-11T13:49:16;30.50;32.40
52979;DHT22;51106;53.186;6.598;2022-08-11T13:51:20;30.60;33.70
52979;DHT22;51106;53.186;6.598;2022-08-11T13:53:35;30.50;33.70
52979;DHT22;51106;53.186;6.598;2022-08-11T13:55:41;30.50;33.90
52979;DHT22;51106;53.186;6.598;2022-08-11T13:57:53;30.50;33.80
52979;DHT22;51106;53.186;6.598;2022-08-11T14:00:16;30.50;33.90
52979;DHT22;51106;53.186;6.598;2022-08-11T14:02:29;30.40;34.10
52979;DHT22;51106;53.186;6.598;2022-08-11T14:06:45;30.20;34.30
52979;DHT22;51106;53.186;6.598;2022-08-11T14:08:51;30.10;33.70
52979;DHT22;51106;53.186;6.598;2022-08-11T14:10:59;30.10;33.80
52979;DHT22;51106;53.186;6.598;2022-08-11T14:13:42;30.00;33.40
52979;DHT22;51106;53.186;6.598;2022-08-11T14:15:49;29.90;34.10
52979;DHT22;51106;53.186;6.598;2022-08-11T14:18:05;29.90;35.00
52979;DHT22;51106;53.186;6.598;2022-08-11T14:20:09;29.90;33.40
52979;DHT22;51106;53.186;6.598;2022-08-11T14:22:31;29.90;34.30
52979;DHT22;51106;53.186;6.598;2022-08-11T14:24:42;29.80;34.70
52979;DHT22;51106;53.186;6.598;2022-08-11T14:26:46;29.60;34.10
52979;DHT22;51106;53.186;6.598;2022-08-11T14:28:52;29.60;34.30
52979;DHT22;51106;53.186;6.598;2022-08-11T14:30:55;29.50;34.60
52979;DHT22;51106;53.186;6.598;2022-08-11T14:33:02;29.50;35.20
52979;DHT22;51106;53.186;6.598;2022-08-11T14:35:18;29.60;35.60
52979;DHT22;51106;53.186;6.598;2022-08-11T14:37:22;29.60;35.40
52979;DHT22;51106;53.186;6.598;2022-08-11T14:39:33;29.50;35.20
52979;DHT22;51106;53.186;6.598;2022-08-11T14:41:44;29.50;35.00
52979;DHT22;51106;53.186;6.598;2022-08-11T14:44:14;29.40;35.80
52979;DHT22;51106;53.186;6.598;2022-08-11T14:46:35;29.40;35.80
52979;DHT22;51106;53.186;6.598;2022-08-11T14:48:56;29.30;35.60
52979;DHT22;51106;53.186;6.598;2022-08-11T14:50:59;29.20;36.20
52979;DHT22;51106;53.186;6.598;2022-08-11T14:53:09;29.20;36.30
52979;DHT22;51106;53.186;6.598;2022-08-11T14:55:19;29.10;36.70
52979;DHT22;51106;53.186;6.598;2022-08-11T14:57:41;28.90;36.50
52979;DHT22;51106;53.186;6.598;2022-08-11T15:00:00;28.80;37.00
52979;DHT22;51106;53.186;6.598;2022-08-11T15:02:05;28.70;37.50
52979;DHT22;51106;53.186;6.598;2022-08-11T15:04:26;28.60;37.50
52979;DHT22;51106;53.186;6.598;2022-08-11T15:06:37;28.50;37.70
52979;DHT22;51106;53.186;6.598;2022-08-11T15:08:39;28.50;37.90
52979;DHT22;51106;53.186;6.598;2022-08-11T15:10:57;28.40;37.90
52979;DHT22;51106;53.186;6.598;2022-08-11T15:12:59;28.40;37.50
52979;DHT22;51106;53.186;6.598;2022-08-11T15:15:04;28.30;37.80
52979;DHT22;51106;53.186;6.598;2022-08-11T15:17:26;28.30;38.10
52979;DHT22;51106;53.186;6.598;2022-08-11T15:19:47;28.20;38.30
52979;DHT22;51106;53.186;6.598;2022-08-11T15:22:09;28.10;37.70
52979;DHT22;51106;53.186;6.598;2022-08-11T15:24:30;28.10;38.10
52979;DHT22;51106;53.186;6.598;2022-08-11T15:26:39;28.10;38.40
52979;DHT22;51106;53.186;6.598;2022-08-11T15:29:01;28.00;38.90
52979;DHT22;51106;53.186;6.598;2022-08-11T15:31:26;27.90;38.30
52979;DHT22;51106;53.186;6.598;2022-08-11T15:33:52;27.90;39.00
52979;DHT22;51106;53.186;6.598;2022-08-11T15:36:19;27.80;39.80
52979;DHT22;51106;53.186;6.598;2022-08-11T15:38:46;27.80;39.00
52979;DHT22;51106;53.186;6.598;2022-08-11T15:40:56;27.70;39.10
52979;DHT22;51106;53.186;6.598;2022-08-11T15:45:49;27.60;38.80
52979;DHT22;51106;53.186;6.598;2022-08-11T15:47:57;27.60;39.40
52979;DHT22;51106;53.186;6.598;2022-08-11T15:50:09;27.60;39.80
52979;DHT22;51106;53.186;6.598;2022-08-11T15:52:21;27.60;40.00
52979;DHT22;51106;53.186;6.598;2022-08-11T15:54:29;27.60;40.10
52979;DHT22;51106;53.186;6.598;2022-08-11T15:56:35;27.60;40.10
52979;DHT22;51106;53.186;6.598;2022-08-11T15:58:46;27.60;40.30
52979;DHT22;51106;53.186;6.598;2022-08-11T16:01:29;27.60;40.20
52979;DHT22;51106;53.186;6.598;2022-08-11T16:03:55;27.60;40.50
52979;DHT22;51106;53.186;6.598;2022-08-11T16:06:15;27.60;40.40
52979;DHT22;51106;53.186;6.598;2022-08-11T16:08:20;27.60;40.70
52979;DHT22;51106;53.186;6.598;2022-08-11T16:10:38;27.50;40.50
52979;DHT22;51106;53.186;6.598;2022-08-11T16:12:49;27.50;40.60
52979;DHT22;51106;53.186;6.598;2022-08-11T16:15:15;27.50;40.60
52979;DHT22;51106;53.186;6.598;2022-08-11T16:17:46;27.40;40.90
52979;DHT22;51106;53.186;6.598;2022-08-11T16:19:51;27.40;41.30
52979;DHT22;51106;53.186;6.598;2022-08-11T16:21:55;27.40;41.40
52979;DHT22;51106;53.186;6.598;2022-08-11T16:23:59;27.40;41.30
52979;DHT22;51106;53.186;6.598;2022-08-11T16:26:02;27.30;41.00
52979;DHT22;51106;53.186;6.598;2022-08-11T16:28:28;27.30;41.30
52979;DHT22;51106;53.186;6.598;2022-08-11T16:30:38;27.40;41.50
52979;DHT22;51106;53.186;6.598;2022-08-11T16:32:43;27.20;41.40
52979;DHT22;51106;53.186;6.598;2022-08-11T16:34:54;27.20;41.30
52979;DHT22;51106;53.186;6.598;2022-08-11T16:37:15;27.20;41.90
52979;DHT22;51106;53.186;6.598;2022-08-11T16:39:38;27.20;42.20
52979;DHT22;51106;53.186;6.598;2022-08-11T16:41:49;27.20;42.00
52979;DHT22;51106;53.186;6.598;2022-08-11T16:44:33;27.20;41.90
52979;DHT22;51106;53.186;6.598;2022-08-11T16:46:59;27.30;42.30
52979;DHT22;51106;53.186;6.598;2022-08-11T16:49:14;27.30;42.10
52979;DHT22;51106;53.186;6.598;2022-08-11T16:51:18;27.40;42.20
52979;DHT22;51106;53.186;6.598;2022-08-11T16:53:21;27.40;42.20
52979;DHT22;51106;53.186;6.598;2022-08-11T16:55:47;27.40;42.40
52979;DHT22;51106;53.186;6.598;2022-08-11T16:57:54;27.40;42.90
52979;DHT22;51106;53.186;6.598;2022-08-11T17:00:16;27.40;42.90
52979;DHT22;51106;53.186;6.598;2022-08-11T17:02:20;27.50;42.60
52979;DHT22;51106;53.186;6.598;2022-08-11T17:04:45;27.80;42.10
52979;DHT22;51106;53.186;6.598;2022-08-11T17:07:13;27.90;41.50
52979;DHT22;51106;53.186;6.598;2022-08-11T17:09:46;28.00;41.20
52979;DHT22;51106;53.186;6.598;2022-08-11T17:12:30;28.00;42.10
52979;DHT22;51106;53.186;6.598;2022-08-11T17:14:54;28.00;41.50
52979;DHT22;51106;53.186;6.598;2022-08-11T17:17:00;27.90;41.70
52979;DHT22;51106;53.186;6.598;2022-08-11T17:19:09;27.70;42.00
52979;DHT22;51106;53.186;6.598;2022-08-11T17:21:16;27.60;42.60
52979;DHT22;51106;53.186;6.598;2022-08-11T17:23:19;27.50;42.80
52979;DHT22;51106;53.186;6.598;2022-08-11T17:25:40;27.60;42.80
52979;DHT22;51106;53.186;6.598;2022-08-11T17:28:04;27.90;42.30
52979;DHT22;51106;53.186;6.598;2022-08-11T17:30:09;28.00;42.20
52979;DHT22;51106;53.186;6.598;2022-08-11T17:32:15;28.00;42.00
52979;DHT22;51106;53.186;6.598;2022-08-11T17:35:02;28.20;41.80
52979;DHT22;51106;53.186;6.598;2022-08-11T17:37:23;28.70;40.60
52979;DHT22;51106;53.186;6.598;2022-08-11T17:39:29;29.10;39.70
52979;DHT22;51106;53.186;6.598;2022-08-11T17:41:32;29.30;39.20